Ardmore, Oklahoma
Current Conditions -  °F | °C
As of 4:15 PM on Tuesday 21 Oct 2014 (Local Time) from K1F0 Reporting Station
Broken Clouds Broken Clouds  
Wind Chill: 26°   Ceiling: 5000
Heat Index: 26°   Visibility: 10mi
Dew Point: 13°   Wind: 6mph
Humidity: 44%   Direction: 170°S
Pressure: 30.03"   Gusts: NA
Location:  34.17°N, 97.13°W
Report Text: K1F0 212115Z AUTO 17005KT 10SM BKN050 BKN055 26/13 A3003 RMK AO2
Loading
Personal Weather Stations






























Interactive Weather Map
Tropical Storm Tracking
New forecast layout! Learn more

10-Day Weather Forecast

Advertisements
Track Severe Weather on mobile